sensor_id;sensor_type;location;lat;lon;timestamp;pressure;altitude;pressure_sealevel;temperature;humidity
75996;BME280;64681;49.738;9.004;2023-02-18T00:00:10;100235.13;;;11.85;78.01
75996;BME280;64681;49.738;9.004;2023-02-18T00:02:36;100241.44;;;12.15;77.08
75996;BME280;64681;49.738;9.004;2023-02-18T00:05:02;100246.47;;;12.26;76.86
75996;BME280;64681;49.738;9.004;2023-02-18T00:07:27;100236.63;;;12.47;76.24
75996;BME280;64681;49.738;9.004;2023-02-18T00:09:53;100249.00;;;12.22;77.27
75996;BME280;64681;49.738;9.004;2023-02-18T00:12:19;100235.84;;;12.38;76.83
75996;BME280;64681;49.738;9.004;2023-02-18T00:14:44;100244.41;;;12.23;77.18
75996;BME280;64681;49.738;9.004;2023-02-18T00:17:10;100239.19;;;12.26;77.37
75996;BME280;64681;49.738;9.004;2023-02-18T00:19:36;100228.50;;;12.26;76.92
75996;BME280;64681;49.738;9.004;2023-02-18T00:22:01;100228.97;;;12.28;77.38
75996;BME280;64681;49.738;9.004;2023-02-18T00:24:27;100241.91;;;12.09;78.39
75996;BME280;64681;49.738;9.004;2023-02-18T00:26:52;100230.06;;;12.27;77.77
75996;BME280;64681;49.738;9.004;2023-02-18T00:29:19;100227.88;;;12.21;78.23
75996;BME280;64681;49.738;9.004;2023-02-18T00:31:45;100217.19;;;12.03;78.59
75996;BME280;64681;49.738;9.004;2023-02-18T00:34:12;100237.50;;;12.04;78.61
75996;BME280;64681;49.738;9.004;2023-02-18T00:36:38;100231.53;;;12.07;79.08
75996;BME280;64681;49.738;9.004;2023-02-18T00:39:06;100235.16;;;11.76;80.63
75996;BME280;64681;49.738;9.004;2023-02-18T00:41:33;100229.31;;;11.74;80.62
75996;BME280;64681;49.738;9.004;2023-02-18T00:44:00;100226.97;;;11.55;81.81
75996;BME280;64681;49.738;9.004;2023-02-18T00:46:27;100236.56;;;11.65;81.69
75996;BME280;64681;49.738;9.004;2023-02-18T00:48:53;100234.38;;;11.76;80.97
75996;BME280;64681;49.738;9.004;2023-02-18T00:51:20;100232.16;;;11.34;83.02
75996;BME280;64681;49.738;9.004;2023-02-18T00:53:46;100230.53;;;11.15;84.42
75996;BME280;64681;49.738;9.004;2023-02-18T00:56:11;100227.28;;;11.71;82.03
75996;BME280;64681;49.738;9.004;2023-02-18T00:58:37;100230.25;;;11.69;82.30
75996;BME280;64681;49.738;9.004;2023-02-18T01:01:05;100239.06;;;11.52;82.14
75996;BME280;64681;49.738;9.004;2023-02-18T01:03:31;100234.22;;;11.54;82.46
75996;BME280;64681;49.738;9.004;2023-02-18T01:05:57;100238.44;;;11.64;82.50
75996;BME280;64681;49.738;9.004;2023-02-18T01:08:22;100228.69;;;11.77;82.10
75996;BME280;64681;49.738;9.004;2023-02-18T01:10:52;100234.19;;;11.81;81.60
75996;BME280;64681;49.738;9.004;2023-02-18T01:13:18;100244.25;;;11.57;82.88
75996;BME280;64681;49.738;9.004;2023-02-18T01:15:43;100244.09;;;11.45;83.78
75996;BME280;64681;49.738;9.004;2023-02-18T01:18:11;100238.72;;;11.28;83.97
75996;BME280;64681;49.738;9.004;2023-02-18T01:20:40;100235.44;;;11.39;84.00
75996;BME280;64681;49.738;9.004;2023-02-18T01:23:06;100245.84;;;11.85;82.13
75996;BME280;64681;49.738;9.004;2023-02-18T01:25:32;100241.28;;;11.77;82.45
75996;BME280;64681;49.738;9.004;2023-02-18T01:27:58;100245.38;;;11.74;82.37
75996;BME280;64681;49.738;9.004;2023-02-18T01:30:23;100238.59;;;11.77;82.41
75996;BME280;64681;49.738;9.004;2023-02-18T01:32:49;100248.69;;;11.53;82.98
75996;BME280;64681;49.738;9.004;2023-02-18T01:35:20;100238.75;;;11.54;82.81
75996;BME280;64681;49.738;9.004;2023-02-18T01:37:46;100233.88;;;11.56;83.29
75996;BME280;64681;49.738;9.004;2023-02-18T01:40:15;100230.75;;;11.36;83.97
75996;BME280;64681;49.738;9.004;2023-02-18T01:42:42;100234.63;;;11.21;84.12
75996;BME280;64681;49.738;9.004;2023-02-18T01:50:36;100231.41;;;10.93;85.94
75996;BME280;64681;49.738;9.004;2023-02-18T01:53:03;100218.44;;;11.09;85.24
75996;BME280;64681;49.738;9.004;2023-02-18T01:55:29;100222.63;;;10.84;86.17
75996;BME280;64681;49.738;9.004;2023-02-18T01:57:55;100218.06;;;10.93;85.49
75996;BME280;64681;49.738;9.004;2023-02-18T02:00:21;100209.66;;;11.26;83.98
75996;BME280;64681;49.738;9.004;2023-02-18T02:02:50;100217.81;;;11.38;84.05
75996;BME280;64681;49.738;9.004;2023-02-18T02:05:16;100212.00;;;11.10;85.20
75996;BME280;64681;49.738;9.004;2023-02-18T02:07:44;100222.84;;;11.31;83.85
75996;BME280;64681;49.738;9.004;2023-02-18T02:10:13;100223.00;;;11.26;84.17
75996;BME280;64681;49.738;9.004;2023-02-18T02:34:31;100182.25;;;11.20;84.02
75996;BME280;64681;49.738;9.004;2023-02-18T02:37:21;100176.94;;;11.38;83.29
75996;BME280;64681;49.738;9.004;2023-02-18T02:40:31;100184.97;;;11.29;83.52
75996;BME280;64681;49.738;9.004;2023-02-18T02:43:32;100179.13;;;11.53;82.83
75996;BME280;64681;49.738;9.004;2023-02-18T02:46:20;100176.31;;;11.67;82.05
75996;BME280;64681;49.738;9.004;2023-02-18T02:49:25;100174.28;;;11.29;83.79
75996;BME280;64681;49.738;9.004;2023-02-18T02:54:31;100179.91;;;11.45;82.71
75996;BME280;64681;49.738;9.004;2023-02-18T02:59:30;100177.72;;;11.21;83.69
75996;BME280;64681;49.738;9.004;2023-02-18T03:04:58;100179.44;;;10.99;84.35
75996;BME280;64681;49.738;9.004;2023-02-18T03:18:01;100151.78;;;11.39;82.35
75996;BME280;64681;49.738;9.004;2023-02-18T03:20:39;100169.06;;;11.50;82.54
75996;BME280;64681;49.738;9.004;2023-02-18T03:23:16;100165.16;;;11.39;82.56
75996;BME280;64681;49.738;9.004;2023-02-18T03:25:43;100127.84;;;11.07;82.85
75996;BME280;64681;49.738;9.004;2023-02-18T03:28:19;100142.97;;;11.30;82.86
75996;BME280;64681;49.738;9.004;2023-02-18T03:30:56;100152.41;;;11.45;81.22
75996;BME280;64681;49.738;9.004;2023-02-18T03:33:31;100159.94;;;11.16;82.23
75996;BME280;64681;49.738;9.004;2023-02-18T03:36:00;100151.91;;;10.99;82.76
75996;BME280;64681;49.738;9.004;2023-02-18T03:38:31;100145.31;;;11.31;81.35
75996;BME280;64681;49.738;9.004;2023-02-18T03:40:59;100154.13;;;11.23;81.24
75996;BME280;64681;49.738;9.004;2023-02-18T03:43:25;100151.59;;;11.09;82.08
75996;BME280;64681;49.738;9.004;2023-02-18T03:45:51;100142.34;;;11.15;82.07
75996;BME280;64681;49.738;9.004;2023-02-18T03:48:17;100126.47;;;11.10;82.27
75996;BME280;64681;49.738;9.004;2023-02-18T03:50:42;100139.03;;;11.27;80.74
75996;BME280;64681;49.738;9.004;2023-02-18T03:53:08;100120.78;;;11.12;81.33
75996;BME280;64681;49.738;9.004;2023-02-18T03:55:34;100145.19;;;11.36;80.40
75996;BME280;64681;49.738;9.004;2023-02-18T03:57:59;100149.25;;;11.16;81.33
75996;BME280;64681;49.738;9.004;2023-02-18T04:00:25;100142.94;;;11.03;81.27
75996;BME280;64681;49.738;9.004;2023-02-18T04:02:50;100147.50;;;10.94;81.71
75996;BME280;64681;49.738;9.004;2023-02-18T04:05:16;100144.38;;;11.09;81.19
75996;BME280;64681;49.738;9.004;2023-02-18T04:07:42;100152.25;;;11.23;81.02
75996;BME280;64681;49.738;9.004;2023-02-18T04:10:08;100145.94;;;11.02;82.02
75996;BME280;64681;49.738;9.004;2023-02-18T04:12:33;100147.84;;;11.45;80.46
75996;BME280;64681;49.738;9.004;2023-02-18T04:14:59;100151.94;;;11.25;80.71
75996;BME280;64681;49.738;9.004;2023-02-18T04:17:25;100154.13;;;11.23;81.82
75996;BME280;64681;49.738;9.004;2023-02-18T04:19:51;100150.03;;;11.17;81.13
75996;BME280;64681;49.738;9.004;2023-02-18T04:22:16;100155.06;;;11.36;80.63
75996;BME280;64681;49.738;9.004;2023-02-18T04:24:42;100141.06;;;11.39;80.21
75996;BME280;64681;49.738;9.004;2023-02-18T04:27:07;100152.09;;;11.29;80.62
75996;BME280;64681;49.738;9.004;2023-02-18T04:29:33;100152.56;;;11.48;79.38
75996;BME280;64681;49.738;9.004;2023-02-18T04:31:59;100156.03;;;11.40;79.43
75996;BME280;64681;49.738;9.004;2023-02-18T04:34:24;100162.47;;;11.39;79.85
75996;BME280;64681;49.738;9.004;2023-02-18T04:36:50;100156.63;;;11.54;79.29
75996;BME280;64681;49.738;9.004;2023-02-18T04:39:15;100145.13;;;11.54;79.16
75996;BME280;64681;49.738;9.004;2023-02-18T04:41:46;100143.56;;;11.27;80.30
75996;BME280;64681;49.738;9.004;2023-02-18T04:44:12;100144.22;;;11.06;80.56
75996;BME280;64681;49.738;9.004;2023-02-18T04:46:38;100132.22;;;10.68;82.69
75996;BME280;64681;49.738;9.004;2023-02-18T04:49:03;100150.72;;;10.56;82.73
75996;BME280;64681;49.738;9.004;2023-02-18T04:51:29;100145.13;;;10.84;82.26
75996;BME280;64681;49.738;9.004;2023-02-18T04:53:54;100145.75;;;10.89;81.78
75996;BME280;64681;49.738;9.004;2023-02-18T04:56:20;100141.06;;;10.95;80.73
75996;BME280;64681;49.738;9.004;2023-02-18T04:58:45;100116.06;;;10.91;78.79
75996;BME280;64681;49.738;9.004;2023-02-18T05:01:11;100137.13;;;10.92;79.62
75996;BME280;64681;49.738;9.004;2023-02-18T05:03:37;100133.03;;;10.95;79.64
75996;BME280;64681;49.738;9.004;2023-02-18T05:06:02;100135.09;;;10.98;78.61
75996;BME280;64681;49.738;9.004;2023-02-18T05:08:28;100137.94;;;11.02;79.02
75996;BME280;64681;49.738;9.004;2023-02-18T05:10:54;100135.72;;;11.04;78.17
75996;BME280;64681;49.738;9.004;2023-02-18T05:13:19;100144.66;;;10.82;78.03
75996;BME280;64681;49.738;9.004;2023-02-18T05:15:47;100156.75;;;10.88;78.63
75996;BME280;64681;49.738;9.004;2023-02-18T05:18:13;100149.06;;;10.95;78.02
75996;BME280;64681;49.738;9.004;2023-02-18T05:20:39;100144.94;;;10.71;78.56
75996;BME280;64681;49.738;9.004;2023-02-18T05:23:04;100133.00;;;10.77;78.66
75996;BME280;64681;49.738;9.004;2023-02-18T05:25:30;100139.16;;;10.87;78.34
75996;BME280;64681;49.738;9.004;2023-02-18T05:27:56;100136.63;;;10.82;78.11
75996;BME280;64681;49.738;9.004;2023-02-18T05:30:21;100136.81;;;10.94;76.62
75996;BME280;64681;49.738;9.004;2023-02-18T05:32:47;100125.31;;;10.67;77.25
75996;BME280;64681;49.738;9.004;2023-02-18T05:35:12;100129.06;;;10.66;77.44
75996;BME280;64681;49.738;9.004;2023-02-18T05:37:38;100137.00;;;11.06;76.55
75996;BME280;64681;49.738;9.004;2023-02-18T05:40:06;100133.00;;;10.77;76.53
75996;BME280;64681;49.738;9.004;2023-02-18T05:42:32;100110.72;;;10.91;76.72
75996;BME280;64681;49.738;9.004;2023-02-18T05:44:58;100128.63;;;10.90;76.30
75996;BME280;64681;49.738;9.004;2023-02-18T05:47:23;100137.59;;;10.95;75.95
75996;BME280;64681;49.738;9.004;2023-02-18T05:49:49;100120.44;;;10.78;76.35
75996;BME280;64681;49.738;9.004;2023-02-18T05:52:16;100101.75;;;10.87;75.79
75996;BME280;64681;49.738;9.004;2023-02-18T05:54:44;100106.75;;;10.71;76.70
75996;BME280;64681;49.738;9.004;2023-02-18T05:57:12;100099.53;;;10.71;75.64
75996;BME280;64681;49.738;9.004;2023-02-18T05:59:38;100092.59;;;10.70;75.33
75996;BME280;64681;49.738;9.004;2023-02-18T06:02:04;100102.53;;;10.79;75.90
75996;BME280;64681;49.738;9.004;2023-02-18T06:04:29;100097.53;;;11.03;74.75
75996;BME280;64681;49.738;9.004;2023-02-18T06:06:55;100094.38;;;10.92;74.46
75996;BME280;64681;49.738;9.004;2023-02-18T06:09:21;100092.63;;;10.97;75.11
75996;BME280;64681;49.738;9.004;2023-02-18T06:11:46;100108.69;;;11.05;74.41
75996;BME280;64681;49.738;9.004;2023-02-18T06:14:12;100100.50;;;10.93;73.23
75996;BME280;64681;49.738;9.004;2023-02-18T06:16:38;100094.38;;;11.01;73.42
75996;BME280;64681;49.738;9.004;2023-02-18T06:19:06;100106.16;;;10.91;73.10
75996;BME280;64681;49.738;9.004;2023-02-18T06:21:32;100103.97;;;11.02;73.16
75996;BME280;64681;49.738;9.004;2023-02-18T06:23:57;100104.59;;;11.08;72.41
75996;BME280;64681;49.738;9.004;2023-02-18T06:26:23;100095.94;;;11.02;72.10
75996;BME280;64681;49.738;9.004;2023-02-18T06:28:48;100085.09;;;10.90;71.95
75996;BME280;64681;49.738;9.004;2023-02-18T06:31:14;100105.38;;;11.00;71.64
75996;BME280;64681;49.738;9.004;2023-02-18T06:33:40;100072.81;;;10.71;72.00
75996;BME280;64681;49.738;9.004;2023-02-18T06:36:07;100082.28;;;10.86;71.67
75996;BME280;64681;49.738;9.004;2023-02-18T06:38:36;100090.28;;;10.86;71.62
75996;BME280;64681;49.738;9.004;2023-02-18T06:41:03;100106.94;;;10.74;71.64
75996;BME280;64681;49.738;9.004;2023-02-18T06:43:28;100083.19;;;10.64;72.33
75996;BME280;64681;49.738;9.004;2023-02-18T06:45:54;100081.97;;;10.79;72.23
75996;BME280;64681;49.738;9.004;2023-02-18T06:48:20;100093.41;;;10.71;72.96
75996;BME280;64681;49.738;9.004;2023-02-18T06:50:47;100095.44;;;10.74;71.78
75996;BME280;64681;49.738;9.004;2023-02-18T06:53:12;100087.25;;;10.53;71.88
75996;BME280;64681;49.738;9.004;2023-02-18T06:55:38;100093.88;;;10.64;72.40
75996;BME280;64681;49.738;9.004;2023-02-18T06:58:04;100100.19;;;10.95;71.00
75996;BME280;64681;49.738;9.004;2023-02-18T07:00:30;100092.47;;;10.93;71.00
75996;BME280;64681;49.738;9.004;2023-02-18T07:02:56;100098.59;;;11.11;71.54
75996;BME280;64681;49.738;9.004;2023-02-18T07:05:22;100086.38;;;11.10;70.93
75996;BME280;64681;49.738;9.004;2023-02-18T07:07:48;100092.66;;;11.05;70.99
75996;BME280;64681;49.738;9.004;2023-02-18T07:10:13;100097.50;;;11.30;70.70
75996;BME280;64681;49.738;9.004;2023-02-18T07:12:39;100099.72;;;10.92;71.14
75996;BME280;64681;49.738;9.004;2023-02-18T07:15:04;100101.94;;;11.08;71.12
75996;BME280;64681;49.738;9.004;2023-02-18T07:17:30;100088.06;;;10.88;71.84
75996;BME280;64681;49.738;9.004;2023-02-18T07:19:56;100076.75;;;11.00;71.45
75996;BME280;64681;49.738;9.004;2023-02-18T07:22:22;100087.13;;;11.19;69.76
75996;BME280;64681;49.738;9.004;2023-02-18T07:24:51;100088.09;;;11.06;71.10
75996;BME280;64681;49.738;9.004;2023-02-18T07:27:18;100079.28;;;11.14;70.48
75996;BME280;64681;49.738;9.004;2023-02-18T07:29:43;100072.19;;;11.27;70.24
75996;BME280;64681;49.738;9.004;2023-02-18T07:32:12;100064.66;;;11.29;69.84
75996;BME280;64681;49.738;9.004;2023-02-18T07:34:38;100072.03;;;11.41;69.67
75996;BME280;64681;49.738;9.004;2023-02-18T07:37:03;100044.53;;;11.14;70.85
75996;BME280;64681;49.738;9.004;2023-02-18T07:39:39;100065.56;;;11.42;70.93
75996;BME280;64681;49.738;9.004;2023-02-18T07:42:05;100054.56;;;11.44;69.54
75996;BME280;64681;49.738;9.004;2023-02-18T07:44:31;100054.81;;;11.68;69.76
75996;BME280;64681;49.738;9.004;2023-02-18T07:46:56;100051.91;;;11.26;71.39
75996;BME280;64681;49.738;9.004;2023-02-18T07:49:22;100045.53;;;11.66;69.52
75996;BME280;64681;49.738;9.004;2023-02-18T07:51:48;100059.50;;;11.71;69.80
75996;BME280;64681;49.738;9.004;2023-02-18T07:54:14;100040.78;;;11.71;68.50
75996;BME280;64681;49.738;9.004;2023-02-18T07:56:40;100050.34;;;11.81;68.75
75996;BME280;64681;49.738;9.004;2023-02-18T07:59:09;100054.41;;;11.40;70.45
75996;BME280;64681;49.738;9.004;2023-02-18T08:01:34;100045.94;;;11.77;68.94
75996;BME280;64681;49.738;9.004;2023-02-18T08:04:00;100037.41;;;11.45;69.77
75996;BME280;64681;49.738;9.004;2023-02-18T08:06:31;100039.09;;;11.58;68.98
75996;BME280;64681;49.738;9.004;2023-02-18T08:08:58;100050.19;;;11.86;68.70
75996;BME280;64681;49.738;9.004;2023-02-18T08:11:23;100045.72;;;11.99;67.28
75996;BME280;64681;49.738;9.004;2023-02-18T08:13:49;100061.94;;;11.94;67.90
75996;BME280;64681;49.738;9.004;2023-02-18T08:16:16;100037.91;;;11.85;67.77
75996;BME280;64681;49.738;9.004;2023-02-18T08:18:42;100050.84;;;12.22;67.09
75996;BME280;64681;49.738;9.004;2023-02-18T08:21:08;100040.94;;;12.44;65.88
75996;BME280;64681;49.738;9.004;2023-02-18T08:23:34;100039.59;;;12.80;64.44
75996;BME280;64681;49.738;9.004;2023-02-18T08:25:59;100032.72;;;12.49;64.72
75996;BME280;64681;49.738;9.004;2023-02-18T08:28:25;100003.19;;;12.37;65.55
75996;BME280;64681;49.738;9.004;2023-02-18T08:30:53;100000.16;;;12.38;65.04
75996;BME280;64681;49.738;9.004;2023-02-18T08:33:20;100035.31;;;12.58;65.29
75996;BME280;64681;49.738;9.004;2023-02-18T08:35:48;100030.00;;;13.12;63.53
75996;BME280;64681;49.738;9.004;2023-02-18T08:38:14;100015.00;;;12.78;63.00
75996;BME280;64681;49.738;9.004;2023-02-18T08:40:40;100009.00;;;12.81;63.46
75996;BME280;64681;49.738;9.004;2023-02-18T08:43:07;99987.34;;;12.86;63.49
75996;BME280;64681;49.738;9.004;2023-02-18T08:45:32;100001.09;;;12.63;64.00
75996;BME280;64681;49.738;9.004;2023-02-18T08:47:58;99992.06;;;12.47;64.23
75996;BME280;64681;49.738;9.004;2023-02-18T08:50:24;99996.09;;;12.74;63.68
75996;BME280;64681;49.738;9.004;2023-02-18T08:52:52;100012.91;;;12.62;63.42
75996;BME280;64681;49.738;9.004;2023-02-18T08:55:18;100017.53;;;12.74;63.00
75996;BME280;64681;49.738;9.004;2023-02-18T08:57:49;100015.13;;;12.39;64.40
75996;BME280;64681;49.738;9.004;2023-02-18T09:00:16;100012.13;;;12.62;63.80
75996;BME280;64681;49.738;9.004;2023-02-18T09:02:42;100003.44;;;12.44;64.47
75996;BME280;64681;49.738;9.004;2023-02-18T09:05:08;100020.50;;;12.60;63.93
75996;BME280;64681;49.738;9.004;2023-02-18T09:07:36;100040.22;;;12.98;63.70
75996;BME280;64681;49.738;9.004;2023-02-18T09:10:02;100040.97;;;13.20;62.84
75996;BME280;64681;49.738;9.004;2023-02-18T09:12:28;100046.19;;;12.82;64.77
75996;BME280;64681;49.738;9.004;2023-02-18T09:14:53;100052.53;;;13.33;63.42
75996;BME280;64681;49.738;9.004;2023-02-18T09:17:20;100057.81;;;12.87;63.75
75996;BME280;64681;49.738;9.004;2023-02-18T09:19:45;100053.03;;;12.92;64.34
75996;BME280;64681;49.738;9.004;2023-02-18T09:22:11;100025.78;;;12.90;62.81
75996;BME280;64681;49.738;9.004;2023-02-18T09:24:38;100040.13;;;13.07;63.31
75996;BME280;64681;49.738;9.004;2023-02-18T09:27:04;100055.81;;;13.17;63.17
75996;BME280;64681;49.738;9.004;2023-02-18T09:29:31;100057.16;;;13.11;64.19
75996;BME280;64681;49.738;9.004;2023-02-18T09:32:00;100040.59;;;13.09;63.86
75996;BME280;64681;49.738;9.004;2023-02-18T09:34:26;100040.44;;;13.26;62.19
75996;BME280;64681;49.738;9.004;2023-02-18T09:36:52;100041.63;;;13.17;64.04
75996;BME280;64681;49.738;9.004;2023-02-18T09:39:18;100047.06;;;13.08;63.13
75996;BME280;64681;49.738;9.004;2023-02-18T09:41:51;100041.56;;;13.38;62.31
75996;BME280;64681;49.738;9.004;2023-02-18T09:44:26;100036.03;;;13.43;62.06
75996;BME280;64681;49.738;9.004;2023-02-18T09:47:14;100061.47;;;13.95;61.26
75996;BME280;64681;49.738;9.004;2023-02-18T09:49:50;100046.41;;;13.90;60.77
75996;BME280;64681;49.738;9.004;2023-02-18T09:52:36;100062.94;;;14.30;60.33
75996;BME280;64681;49.738;9.004;2023-02-18T09:57:56;100038.13;;;14.20;60.05
75996;BME280;64681;49.738;9.004;2023-02-18T10:00:40;100047.19;;;14.16;60.99
75996;BME280;64681;49.738;9.004;2023-02-18T10:03:16;100047.28;;;14.19;59.25
75996;BME280;64681;49.738;9.004;2023-02-18T10:06:02;100044.38;;;14.24;60.18
75996;BME280;64681;49.738;9.004;2023-02-18T10:08:34;100033.41;;;13.80;60.46
75996;BME280;64681;49.738;9.004;2023-02-18T10:11:00;100035.41;;;13.71;60.23
75996;BME280;64681;49.738;9.004;2023-02-18T10:13:33;100029.63;;;14.06;60.43
75996;BME280;64681;49.738;9.004;2023-02-18T10:15:59;100037.00;;;14.09;59.05
75996;BME280;64681;49.738;9.004;2023-02-18T10:18:43;100019.66;;;13.82;59.27
75996;BME280;64681;49.738;9.004;2023-02-18T10:21:14;100024.91;;;13.66;60.22
75996;BME280;64681;49.738;9.004;2023-02-18T10:26:20;100030.72;;;13.92;61.17
75996;BME280;64681;49.738;9.004;2023-02-18T10:28:48;100038.00;;;14.17;60.38
75996;BME280;64681;49.738;9.004;2023-02-18T10:31:27;100045.16;;;14.25;59.28
75996;BME280;64681;49.738;9.004;2023-02-18T10:34:12;100048.63;;;13.88;59.32
75996;BME280;64681;49.738;9.004;2023-02-18T10:36:46;100055.78;;;13.97;58.83
75996;BME280;64681;49.738;9.004;2023-02-18T10:45:27;100061.78;;;14.68;56.69
75996;BME280;64681;49.738;9.004;2023-02-18T10:50:44;100026.91;;;13.93;58.66
75996;BME280;64681;49.738;9.004;2023-02-18T10:53:18;100032.28;;;13.69;58.37
75996;BME280;64681;49.738;9.004;2023-02-18T10:55:47;100011.94;;;13.68;58.98
75996;BME280;64681;49.738;9.004;2023-02-18T10:58:45;100029.13;;;13.54;59.30
75996;BME280;64681;49.738;9.004;2023-02-18T11:01:21;100018.88;;;13.81;59.30
75996;BME280;64681;49.738;9.004;2023-02-18T11:03:50;100027.25;;;14.17;58.02
75996;BME280;64681;49.738;9.004;2023-02-18T11:06:19;100029.47;;;14.39;56.95
75996;BME280;64681;49.738;9.004;2023-02-18T11:08:47;100035.16;;;14.50;57.49
75996;BME280;64681;49.738;9.004;2023-02-18T11:11:35;100024.47;;;14.13;59.02
75996;BME280;64681;49.738;9.004;2023-02-18T11:14:05;100023.09;;;14.44;57.80
75996;BME280;64681;49.738;9.004;2023-02-18T11:16:41;100008.00;;;14.80;56.76
75996;BME280;64681;49.738;9.004;2023-02-18T11:19:34;100021.16;;;14.98;55.77
75996;BME280;64681;49.738;9.004;2023-02-18T11:22:33;100013.75;;;14.95;55.59
75996;BME280;64681;49.738;9.004;2023-02-18T11:25:02;100019.81;;;14.51;57.05
75996;BME280;64681;49.738;9.004;2023-02-18T11:27:36;100008.38;;;14.54;57.81
75996;BME280;64681;49.738;9.004;2023-02-18T11:30:20;100024.13;;;14.15;57.58
75996;BME280;64681;49.738;9.004;2023-02-18T11:32:49;100009.13;;;14.14;57.89
75996;BME280;64681;49.738;9.004;2023-02-18T11:35:23;100020.41;;;13.70;58.72
75996;BME280;64681;49.738;9.004;2023-02-18T11:37:50;100000.84;;;13.57;59.38
75996;BME280;64681;49.738;9.004;2023-02-18T11:40:27;100023.91;;;13.83;56.73
75996;BME280;64681;49.738;9.004;2023-02-18T11:45:33;99996.50;;;13.89;56.70
75996;BME280;64681;49.738;9.004;2023-02-18T11:48:30;99998.84;;;14.16;56.01
75996;BME280;64681;49.738;9.004;2023-02-18T11:51:00;99996.03;;;14.00;55.15
75996;BME280;64681;49.738;9.004;2023-02-18T11:53:35;99995.25;;;13.74;56.10
75996;BME280;64681;49.738;9.004;2023-02-18T11:56:06;99987.56;;;13.98;56.26
75996;BME280;64681;49.738;9.004;2023-02-18T11:58:45;99992.91;;;13.48;56.41
75996;BME280;64681;49.738;9.004;2023-02-18T12:01:26;99970.88;;;13.80;55.54
75996;BME280;64681;49.738;9.004;2023-02-18T12:04:06;99979.97;;;13.29;56.72
75996;BME280;64681;49.738;9.004;2023-02-18T12:06:38;99989.78;;;13.83;56.39
75996;BME280;64681;49.738;9.004;2023-02-18T12:09:34;99963.38;;;13.48;57.21
75996;BME280;64681;49.738;9.004;2023-02-18T12:12:10;99974.03;;;13.69;56.94
75996;BME280;64681;49.738;9.004;2023-02-18T12:14:38;99964.94;;;13.61;56.45
75996;BME280;64681;49.738;9.004;2023-02-18T12:31:04;99951.41;;;15.21;53.18
75996;BME280;64681;49.738;9.004;2023-02-18T12:41:52;99951.91;;;15.11;52.58
75996;BME280;64681;49.738;9.004;2023-02-18T12:44:36;99941.13;;;14.79;53.09
75996;BME280;64681;49.738;9.004;2023-02-18T13:01:47;99926.88;;;14.09;54.70
75996;BME280;64681;49.738;9.004;2023-02-18T13:13:21;99932.44;;;13.63;56.84
75996;BME280;64681;49.738;9.004;2023-02-18T13:16:21;99922.63;;;14.08;56.57
75996;BME280;64681;49.738;9.004;2023-02-18T13:21:19;99915.44;;;13.59;56.63
75996;BME280;64681;49.738;9.004;2023-02-18T13:23:56;99908.16;;;13.59;57.39
75996;BME280;64681;49.738;9.004;2023-02-18T13:26:27;99896.53;;;13.43;57.62
75996;BME280;64681;49.738;9.004;2023-02-18T13:40:13;99914.41;;;13.39;58.32
75996;BME280;64681;49.738;9.004;2023-02-18T13:42:41;99910.06;;;13.71;55.98
75996;BME280;64681;49.738;9.004;2023-02-18T13:45:28;99912.06;;;13.74;55.84
75996;BME280;64681;49.738;9.004;2023-02-18T13:47:55;99907.00;;;13.23;57.79
75996;BME280;64681;49.738;9.004;2023-02-18T13:53:22;99916.31;;;13.75;56.67
75996;BME280;64681;49.738;9.004;2023-02-18T13:56:02;99927.91;;;13.30;58.87
75996;BME280;64681;49.738;9.004;2023-02-18T13:58:41;99925.34;;;13.34;59.06
75996;BME280;64681;49.738;9.004;2023-02-18T14:06:18;99931.56;;;13.13;57.97
75996;BME280;64681;49.738;9.004;2023-02-18T14:08:44;99951.59;;;13.28;58.82
75996;BME280;64681;49.738;9.004;2023-02-18T14:14:14;99955.88;;;13.41;58.33
75996;BME280;64681;49.738;9.004;2023-02-18T14:22:45;99963.28;;;13.57;57.48
75996;BME280;64681;49.738;9.004;2023-02-18T14:25:16;99945.28;;;13.82;57.46
75996;BME280;64681;49.738;9.004;2023-02-18T14:27:50;99961.16;;;13.50;58.16
75996;BME280;64681;49.738;9.004;2023-02-18T14:30:25;99940.41;;;12.80;59.59
75996;BME280;64681;49.738;9.004;2023-02-18T14:32:58;99958.53;;;12.83;60.47
75996;BME280;64681;49.738;9.004;2023-02-18T14:35:42;99956.38;;;13.10;58.80
75996;BME280;64681;49.738;9.004;2023-02-18T14:38:19;99954.03;;;13.21;59.15
75996;BME280;64681;49.738;9.004;2023-02-18T14:40:50;99969.81;;;12.89;61.54
75996;BME280;64681;49.738;9.004;2023-02-18T14:43:38;99959.59;;;12.27;62.83
75996;BME280;64681;49.738;9.004;2023-02-18T14:46:09;99971.88;;;12.49;62.56
75996;BME280;64681;49.738;9.004;2023-02-18T14:51:24;99974.41;;;12.67;62.40
75996;BME280;64681;49.738;9.004;2023-02-18T14:53:51;99977.34;;;12.74;61.74
75996;BME280;64681;49.738;9.004;2023-02-18T14:56:19;99982.59;;;12.49;65.38
75996;BME280;64681;49.738;9.004;2023-02-18T14:58:46;99989.47;;;12.59;64.42
75996;BME280;64681;49.738;9.004;2023-02-18T15:01:19;99979.84;;;12.37;66.81
75996;BME280;64681;49.738;9.004;2023-02-18T15:03:47;99959.13;;;12.04;66.41
75996;BME280;64681;49.738;9.004;2023-02-18T15:06:31;99955.72;;;11.56;68.28
75996;BME280;64681;49.738;9.004;2023-02-18T15:09:12;99959.81;;;11.53;68.41
75996;BME280;64681;49.738;9.004;2023-02-18T15:11:46;99961.91;;;11.78;68.53
75996;BME280;64681;49.738;9.004;2023-02-18T15:14:19;99969.09;;;11.86;69.38
75996;BME280;64681;49.738;9.004;2023-02-18T15:16:48;99970.19;;;11.94;68.53
75996;BME280;64681;49.738;9.004;2023-02-18T15:19:26;99963.91;;;11.98;68.78
75996;BME280;64681;49.738;9.004;2023-02-18T15:21:55;99967.75;;;12.10;68.32
75996;BME280;64681;49.738;9.004;2023-02-18T15:26:53;99965.97;;;11.84;68.58
75996;BME280;64681;49.738;9.004;2023-02-18T15:29:33;99976.72;;;11.75;68.11